Time;durP1;ratioP1;P1;durP2;ratioP2;P2;SDS_P1;SDS_P2;PMS_P1;PMS_P2;Temp;Humidity;BMP_temperature;BMP_pressure;BME280_temperature;BME280_humidity;BME280_pressure;Samples;Min_cycle;Max_cycle;Signal;HPM_P1;HPM_P2
2022/01/31 00:00:16;;;;;;;19.83;6.20;;;;;;;;;;524024;28;1304;-76
2022/01/31 00:00:31;;;;;;;19.63;6.10;;;;;;;;;;524220;28;962;-76
2022/01/31 00:00:47;;;;;;;16.60;6.10;;;;;;;;;;524493;28;867;-75
2022/01/31 00:01:03;;;;;;;17.93;6.10;;;;;;;;;;524832;28;1112;-75
2022/01/31 00:01:18;;;;;;;17.55;5.95;;;;;;;;;;526991;28;910;-75
2022/01/31 00:01:33;;;;;;;16.40;6.00;;;;;;;;;;528329;28;740;-75
2022/01/31 00:01:49;;;;;;;16.55;5.90;;;;;;;;;;526234;28;1181;-76
2022/01/31 00:02:04;;;;;;;15.90;5.93;;;;;;;;;;526403;28;740;-75
2022/01/31 00:02:19;;;;;;;16.93;5.90;;;;;;;;;;528131;28;728;-75
2022/01/31 00:02:35;;;;;;;16.77;5.72;;;;;;;;;;526075;28;1188;-76
2022/01/31 00:02:50;;;;;;;17.55;5.72;;;;;;;;;;526291;28;815;-75
2022/01/31 00:03:06;;;;;;;20.30;5.60;;;;;;;;;;526236;28;665;-75
2022/01/31 00:03:21;;;;;;;20.13;5.87;;;;;;;;;;526176;28;927;-75
2022/01/31 00:03:37;;;;;;;18.83;6.22;;;;;;;;;;526255;28;791;-75
2022/01/31 00:03:52;;;;;;;19.73;6.50;;;;;;;;;;525795;28;1187;-75
2022/01/31 00:04:07;;;;;;;18.57;6.50;;;;;;;;;;525591;28;744;-75
2022/01/31 00:04:23;;;;;;;16.53;6.03;;;;;;;;;;523652;28;839;-75
2022/01/31 00:04:38;;;;;;;17.23;6.13;;;;;;;;;;525912;28;787;-75
2022/01/31 00:04:54;;;;;;;17.33;6.23;;;;;;;;;;525532;28;670;-75
2022/01/31 00:05:10;;;;;;;17.13;6.17;;;;;;;;;;525911;28;1157;-76
2022/01/31 00:05:25;;;;;;;17.40;6.20;;;;;;;;;;525932;28;1230;-76
2022/01/31 00:05:40;;;;;;;16.75;6.00;;;;;;;;;;526448;28;697;-76
2022/01/31 00:05:56;;;;;;;18.30;6.17;;;;;;;;;;528406;28;791;-75
2022/01/31 00:06:11;;;;;;;21.05;6.25;;;;;;;;;;528178;28;666;-75
2022/01/31 00:06:27;;;;;;;21.00;6.20;;;;;;;;;;528244;28;695;-76
2022/01/31 00:06:47;;;;;;;17.75;6.20;;;;;;;;;;528383;28;811;-75
2022/01/31 00:07:03;;;;;;;15.60;6.35;;;;;;;;;;528369;28;838;-75
2022/01/31 00:07:18;;;;;;;17.08;6.18;;;;;;;;;;529556;27;705;-76
2022/01/31 00:07:34;;;;;;;19.33;6.00;;;;;;;;;;530883;27;717;-76
2022/01/31 00:07:49;;;;;;;17.77;6.00;;;;;;;;;;528284;28;1210;-75
2022/01/31 00:08:04;;;;;;;16.93;5.80;;;;;;;;;;528536;28;762;-75
2022/01/31 00:08:24;;;;;;;18.00;5.87;;;;;;;;;;528414;28;748;-75
2022/01/31 00:08:40;;;;;;;19.75;5.97;;;;;;;;;;526289;28;1317;-76
2022/01/31 00:08:55;;;;;;;16.67;5.95;;;;;;;;;;526492;28;886;-76
2022/01/31 00:09:15;;;;;;;15.65;6.05;;;;;;;;;;526307;28;1301;-76
2022/01/31 00:09:30;;;;;;;16.67;6.00;;;;;;;;;;526538;28;776;-76
2022/01/31 00:09:45;;;;;;;16.77;5.77;;;;;;;;;;523714;28;1190;-75
2022/01/31 00:10:06;;;;;;;16.83;5.78;;;;;;;;;;523683;28;1352;-76
2022/01/31 00:10:28;;;;;;;19.80;6.40;;;;;;;;;;521740;28;1938;-75
2022/01/31 00:10:43;;;;;;;19.65;6.03;;;;;;;;;;524082;28;1241;-75
2022/01/31 00:10:59;;;;;;;17.63;6.10;;;;;;;;;;524069;28;788;-75
2022/01/31 00:11:15;;;;;;;18.87;6.37;;;;;;;;;;524182;28;1234;-75
2022/01/31 00:11:31;;;;;;;20.52;6.20;;;;;;;;;;524057;28;716;-75
2022/01/31 00:11:55;;;;;;;19.00;5.97;;;;;;;;;;524944;28;1003;-75
2022/01/31 00:12:14;;;;;;;18.48;5.72;;;;;;;;;;524988;28;986;-75
2022/01/31 00:12:34;;;;;;;19.92;5.97;;;;;;;;;;525602;28;1262;-75
2022/01/31 00:12:55;;;;;;;18.70;5.70;;;;;;;;;;526352;28;796;-76
2022/01/31 00:13:17;;;;;;;17.30;5.78;;;;;;;;;;527729;28;1201;-76
2022/01/31 00:13:37;;;;;;;15.68;5.60;;;;;;;;;;528421;28;838;-75
2022/01/31 00:14:03;;;;;;;17.05;5.72;;;;;;;;;;528166;28;1105;-76
2022/01/31 00:15:02;;;;;;;15.98;5.60;;;;;;;;;;519192;28;753;-76
2022/01/31 00:15:03;;;;;;;17.58;5.63;;;;;;;;;;527905;28;1524;-75
2022/01/31 00:15:17;;;;;;;16.67;5.90;;;;;;;;;;528215;28;1109;-75
2022/01/31 00:15:38;;;;;;;16.75;5.93;;;;;;;;;;528612;28;760;-75
2022/01/31 00:15:56;;;;;;;17.42;5.50;;;;;;;;;;528540;28;1392;-75
2022/01/31 00:16:20;;;;;;;18.40;5.40;;;;;;;;;;528574;28;1278;-75
2022/01/31 00:16:35;;;;;;;15.10;5.50;;;;;;;;;;526083;28;1274;-75
2022/01/31 00:16:51;;;;;;;17.67;5.83;;;;;;;;;;526090;28;903;-75
2022/01/31 00:17:08;;;;;;;19.87;6.00;;;;;;;;;;526326;28;823;-76
2022/01/31 00:17:23;;;;;;;18.50;5.68;;;;;;;;;;526104;28;1319;-75
2022/01/31 00:17:38;;;;;;;17.75;5.88;;;;;;;;;;526128;28;828;-76
2022/01/31 00:17:54;;;;;;;17.60;5.90;;;;;;;;;;525652;28;1014;-75
2022/01/31 00:18:09;;;;;;;18.02;5.90;;;;;;;;;;525955;28;1445;-76
2022/01/31 00:18:24;;;;;;;16.73;5.70;;;;;;;;;;525270;28;1464;-76
2022/01/31 00:18:40;;;;;;;14.73;5.23;;;;;;;;;;526153;28;764;-75
2022/01/31 00:18:56;;;;;;;13.52;5.15;;;;;;;;;;525971;28;783;-75
2022/01/31 00:19:11;;;;;;;14.13;5.23;;;;;;;;;;525745;28;1164;-75
2022/01/31 00:19:26;;;;;;;16.75;5.32;;;;;;;;;;526128;28;1245;-76
2022/01/31 00:19:43;;;;;;;17.87;5.57;;;;;;;;;;526372;28;748;-75
2022/01/31 00:19:59;;;;;;;18.40;5.88;;;;;;;;;;525088;28;1325;-76
2022/01/31 00:20:14;;;;;;;17.58;5.93;;;;;;;;;;527328;28;1221;-75
2022/01/31 00:20:29;;;;;;;16.63;5.87;;;;;;;;;;525419;28;1221;-75
2022/01/31 00:20:45;;;;;;;16.83;5.90;;;;;;;;;;524122;28;966;-75
2022/01/31 00:21:00;;;;;;;18.10;5.95;;;;;;;;;;523943;28;809;-76
2022/01/31 00:21:15;;;;;;;20.23;6.20;;;;;;;;;;522664;28;1261;-76
2022/01/31 00:21:31;;;;;;;18.93;5.97;;;;;;;;;;524418;28;792;-75
2022/01/31 00:21:46;;;;;;;16.10;5.68;;;;;;;;;;524402;28;831;-75
2022/01/31 00:22:03;;;;;;;14.10;5.77;;;;;;;;;;526338;28;1131;-76
2022/01/31 00:22:18;;;;;;;15.07;5.80;;;;;;;;;;526765;28;914;-75
2022/01/31 00:22:34;;;;;;;17.13;5.75;;;;;;;;;;528291;28;1251;-75
2022/01/31 00:22:49;;;;;;;17.30;5.63;;;;;;;;;;528193;28;1114;-76
2022/01/31 00:23:04;;;;;;;16.93;5.70;;;;;;;;;;525885;28;1179;-75
2022/01/31 00:23:20;;;;;;;16.60;5.95;;;;;;;;;;526460;28;807;-76
2022/01/31 00:23:35;;;;;;;17.07;5.87;;;;;;;;;;526339;28;823;-76
2022/01/31 00:23:50;;;;;;;17.07;5.53;;;;;;;;;;526419;28;835;-76
2022/01/31 00:24:06;;;;;;;17.30;5.80;;;;;;;;;;527659;28;1221;-76
2022/01/31 00:24:21;;;;;;;18.77;6.20;;;;;;;;;;522220;28;1277;-75
2022/01/31 00:24:37;;;;;;;19.30;6.40;;;;;;;;;;528120;28;1370;-75
2022/01/31 00:24:52;;;;;;;18.10;6.32;;;;;;;;;;525967;28;869;-75
2022/01/31 00:25:08;;;;;;;18.77;6.78;;;;;;;;;;527987;28;830;-75
2022/01/31 00:25:23;;;;;;;20.45;7.20;;;;;;;;;;528658;28;842;-75
2022/01/31 00:25:39;;;;;;;19.87;6.53;;;;;;;;;;528364;28;822;-76
2022/01/31 00:25:54;;;;;;;18.13;5.80;;;;;;;;;;528600;28;802;-75
2022/01/31 00:26:09;;;;;;;15.63;5.53;;;;;;;;;;528892;27;1410;-75
2022/01/31 00:26:25;;;;;;;15.90;5.40;;;;;;;;;;530574;27;751;-75
2022/01/31 00:26:40;;;;;;;19.27;5.57;;;;;;;;;;528383;28;1201;-76
2022/01/31 00:26:55;;;;;;;17.80;5.77;;;;;;;;;;526340;28;1230;-75
2022/01/31 00:27:10;;;;;;;19.77;5.90;;;;;;;;;;525596;28;933;-75
2022/01/31 00:27:26;;;;;;;20.87;5.50;;;;;;;;;;526394;28;1316;-75
2022/01/31 00:27:41;;;;;;;16.60;5.17;;;;;;;;;;526405;28;1123;-76
2022/01/31 00:27:56;;;;;;;16.50;4.90;;;;;;;;;;526092;28;850;-75
2022/01/31 00:28:11;;;;;;;17.20;5.07;;;;;;;;;;526201;28;795;-75
2022/01/31 00:28:27;;;;;;;15.80;4.90;;;;;;;;;;526443;28;747;-75
2022/01/31 00:28:42;;;;;;;15.63;4.80;;;;;;;;;;528467;28;847;-75
2022/01/31 00:28:57;;;;;;;16.60;5.05;;;;;;;;;;528235;28;743;-75
2022/01/31 00:29:13;;;;;;;16.70;4.90;;;;;;;;;;525226;28;1456;-75
2022/01/31 00:29:28;;;;;;;16.87;4.63;;;;;;;;;;525220;28;1111;-75
2022/01/31 00:29:43;;;;;;;14.82;4.28;;;;;;;;;;527794;28;1487;-76
2022/01/31 00:29:59;;;;;;;14.80;4.30;;;;;;;;;;525682;28;1359;-75
2022/01/31 00:30:15;;;;;;;16.40;4.37;;;;;;;;;;526342;28;866;-75
2022/01/31 00:30:30;;;;;;;15.50;4.28;;;;;;;;;;523786;28;1902;-75
2022/01/31 00:30:46;;;;;;;15.77;4.33;;;;;;;;;;524127;28;938;-75
2022/01/31 00:31:01;;;;;;;16.17;4.43;;;;;;;;;;524561;28;791;-75
2022/01/31 00:31:17;;;;;;;15.93;4.30;;;;;;;;;;524235;28;1874;-76
2022/01/31 00:31:33;;;;;;;13.90;3.97;;;;;;;;;;524189;28;1559;-75
2022/01/31 00:31:48;;;;;;;14.93;4.00;;;;;;;;;;524648;28;1741;-75
2022/01/31 00:32:04;;;;;;;16.83;4.15;;;;;;;;;;526661;28;1548;-75
2022/01/31 00:32:19;;;;;;;15.15;3.97;;;;;;;;;;526675;28;1614;-75
2022/01/31 00:32:35;;;;;;;15.00;3.70;;;;;;;;;;528372;28;680;-75
2022/01/31 00:32:50;;;;;;;14.13;3.55;;;;;;;;;;525404;28;1673;-76
2022/01/31 00:33:06;;;;;;;13.67;3.70;;;;;;;;;;525636;28;1661;-75
2022/01/31 00:33:21;;;;;;;14.73;4.00;;;;;;;;;;525431;28;1168;-76
2022/01/31 00:33:37;;;;;;;12.87;3.83;;;;;;;;;;523765;28;1570;-75
2022/01/31 00:33:52;;;;;;;12.27;3.80;;;;;;;;;;524172;28;1528;-75
2022/01/31 00:34:07;;;;;;;14.93;3.87;;;;;;;;;;522683;28;1374;-76
2022/01/31 00:34:23;;;;;;;14.53;3.77;;;;;;;;;;522179;28;1300;-77
2022/01/31 00:34:39;;;;;;;13.23;3.88;;;;;;;;;;522172;28;841;-76
2022/01/31 00:34:54;;;;;;;13.20;3.70;;;;;;;;;;521685;28;1376;-76
2022/01/31 00:35:10;;;;;;;13.40;3.73;;;;;;;;;;522316;28;930;-76
2022/01/31 00:35:26;;;;;;;15.70;3.75;;;;;;;;;;522209;28;783;-76
2022/01/31 00:35:41;;;;;;;15.65;3.67;;;;;;;;;;523041;28;733;-75
2022/01/31 00:35:56;;;;;;;12.43;3.70;;;;;;;;;;526481;28;756;-75
2022/01/31 00:36:12;;;;;;;11.48;3.72;;;;;;;;;;524758;28;899;-75
2022/01/31 00:36:27;;;;;;;12.43;3.70;;;;;;;;;;526368;28;1056;-75
2022/01/31 00:36:42;;;;;;;14.27;3.90;;;;;;;;;;526357;28;1275;-75
2022/01/31 00:36:58;;;;;;;17.85;4.30;;;;;;;;;;528329;28;867;-75
2022/01/31 00:37:14;;;;;;;15.65;4.25;;;;;;;;;;528185;28;978;-75
2022/01/31 00:37:29;;;;;;;13.27;3.90;;;;;;;;;;525847;28;1258;-76
2022/01/31 00:37:44;;;;;;;13.93;3.83;;;;;;;;;;523752;28;1440;-75
2022/01/31 00:38:00;;;;;;;13.20;3.85;;;;;;;;;;525009;28;767;-76
2022/01/31 00:38:15;;;;;;;12.00;3.77;;;;;;;;;;522987;28;1171;-76
2022/01/31 00:38:30;;;;;;;13.30;4.03;;;;;;;;;;522198;28;1245;-75
2022/01/31 00:38:46;;;;;;;15.32;4.38;;;;;;;;;;524150;28;1182;-76
2022/01/31 00:39:02;;;;;;;14.20;4.33;;;;;;;;;;524040;28;1394;-76
2022/01/31 00:39:17;;;;;;;11.98;3.92;;;;;;;;;;524383;28;1034;-75
2022/01/31 00:39:35;;;;;;;11.82;3.70;;;;;;;;;;525846;28;839;-76
2022/01/31 00:39:51;;;;;;;11.65;3.75;;;;;;;;;;525437;28;689;-76
2022/01/31 00:40:08;;;;;;;13.80;4.20;;;;;;;;;;524022;28;1202;-76
2022/01/31 00:40:24;;;;;;;14.23;4.25;;;;;;;;;;524244;28;933;-76
2022/01/31 00:40:41;;;;;;;13.63;4.23;;;;;;;;;;522141;28;1167;-76
2022/01/31 00:40:57;;;;;;;16.63;4.40;;;;;;;;;;523627;28;969;-75
2022/01/31 00:41:12;;;;;;;16.43;4.37;;;;;;;;;;523922;28;1161;-75
2022/01/31 00:41:27;;;;;;;15.70;4.20;;;;;;;;;;523659;28;1174;-75
2022/01/31 00:41:43;;;;;;;16.40;4.30;;;;;;;;;;523545;28;739;-75
2022/01/31 00:41:58;;;;;;;15.30;4.37;;;;;;;;;;524900;28;1110;-76
2022/01/31 00:42:13;;;;;;;15.00;4.30;;;;;;;;;;525884;28;1464;-76
2022/01/31 00:42:30;;;;;;;15.67;4.27;;;;;;;;;;526074;28;1310;-76
2022/01/31 00:42:45;;;;;;;14.48;3.80;;;;;;;;;;528377;28;1432;-76
2022/01/31 00:43:01;;;;;;;13.17;3.70;;;;;;;;;;526264;28;1243;-76
2022/01/31 00:43:18;;;;;;;13.90;4.00;;;;;;;;;;526681;28;1399;-76
2022/01/31 00:43:36;;;;;;;15.20;4.30;;;;;;;;;;526370;28;1238;-76
2022/01/31 00:44:55;;;;;;;14.27;4.15;;;;;;;;;;525843;28;1237;-76
2022/01/31 00:45:13;;;;;;;14.73;3.90;;;;;;;;;;521940;28;1156;-76
2022/01/31 00:45:24;;;;;;;14.65;4.10;;;;;;;;;;522208;28;1207;-75
2022/01/31 00:45:58;;;;;;;12.10;3.67;;;;;;;;;;526529;28;1281;-76
2022/01/31 00:46:22;;;;;;;14.38;3.97;;;;;;;;;;526265;28;901;-76
2022/01/31 00:46:41;;;;;;;14.70;3.92;;;;;;;;;;524212;28;1364;-76
2022/01/31 00:47:02;;;;;;;15.07;3.90;;;;;;;;;;524192;28;834;-76
2022/01/31 00:47:25;;;;;;;14.43;4.15;;;;;;;;;;523643;28;1424;-76
2022/01/31 00:47:45;;;;;;;16.02;4.43;;;;;;;;;;526068;28;1445;-75
2022/01/31 00:48:05;;;;;;;16.00;4.40;;;;;;;;;;523704;28;887;-75
2022/01/31 00:48:25;;;;;;;14.43;3.95;;;;;;;;;;524086;28;1144;-76
2022/01/31 00:48:44;;;;;;;14.50;3.90;;;;;;;;;;526273;28;882;-76
2022/01/31 00:48:59;;;;;;;15.00;4.00;;;;;;;;;;526205;28;1244;-76
2022/01/31 00:49:27;;;;;;;16.07;4.27;;;;;;;;;;526369;28;822;-76
2022/01/31 00:49:50;;;;;;;14.25;3.78;;;;;;;;;;524015;28;1494;-75
2022/01/31 00:50:08;;;;;;;12.13;3.78;;;;;;;;;;523908;28;717;-75
2022/01/31 00:50:24;;;;;;;13.07;4.05;;;;;;;;;;524241;28;1914;-75
2022/01/31 00:50:39;;;;;;;12.53;4.00;;;;;;;;;;524374;28;717;-75
2022/01/31 00:50:55;;;;;;;11.88;3.70;;;;;;;;;;525689;28;799;-75
2022/01/31 00:51:11;;;;;;;13.70;3.83;;;;;;;;;;524110;28;2520;-76
2022/01/31 00:51:26;;;;;;;15.27;4.13;;;;;;;;;;526070;28;2779;-76
2022/01/31 00:51:41;;;;;;;14.83;4.20;;;;;;;;;;525360;27;2433;-76
2022/01/31 00:51:57;;;;;;;13.73;4.00;;;;;;;;;;527355;28;2262;-76
2022/01/31 00:52:12;;;;;;;12.88;3.95;;;;;;;;;;526715;28;1231;-76
2022/01/31 00:52:27;;;;;;;13.10;4.20;;;;;;;;;;526500;28;1419;-76
2022/01/31 00:52:44;;;;;;;16.73;4.32;;;;;;;;;;524901;28;1376;-75
2022/01/31 00:52:59;;;;;;;17.77;4.20;;;;;;;;;;522496;28;1253;-76
2022/01/31 00:53:14;;;;;;;15.15;4.05;;;;;;;;;;520386;28;1397;-76
2022/01/31 00:53:30;;;;;;;16.50;4.40;;;;;;;;;;520825;28;1415;-76
2022/01/31 00:53:45;;;;;;;15.52;4.20;;;;;;;;;;522300;28;1435;-76
2022/01/31 00:54:01;;;;;;;14.60;4.00;;;;;;;;;;521976;28;795;-76
2022/01/31 00:54:16;;;;;;;17.27;4.20;;;;;;;;;;521353;28;919;-76
2022/01/31 00:54:31;;;;;;;16.40;4.00;;;;;;;;;;522312;28;853;-76
2022/01/31 00:54:47;;;;;;;15.00;4.10;;;;;;;;;;523447;28;1108;-76
2022/01/31 00:55:04;;;;;;;15.50;4.10;;;;;;;;;;522134;28;1039;-76
2022/01/31 00:55:19;;;;;;;14.70;3.90;;;;;;;;;;524438;28;1133;-76
2022/01/31 00:55:35;;;;;;;14.37;4.13;;;;;;;;;;526068;28;954;-77
2022/01/31 00:55:50;;;;;;;14.27;4.27;;;;;;;;;;526043;28;887;-76
2022/01/31 00:56:05;;;;;;;13.45;3.97;;;;;;;;;;526126;28;923;-76
2022/01/31 00:56:21;;;;;;;14.93;3.87;;;;;;;;;;525766;28;870;-76
2022/01/31 00:56:36;;;;;;;16.23;3.87;;;;;;;;;;525869;28;1127;-76
2022/01/31 00:56:52;;;;;;;13.90;4.00;;;;;;;;;;523659;28;1277;-76
2022/01/31 00:57:07;;;;;;;14.13;4.03;;;;;;;;;;521872;28;1029;-76
2022/01/31 00:57:23;;;;;;;14.37;3.93;;;;;;;;;;522456;28;1080;-76
2022/01/31 00:57:40;;;;;;;13.47;3.70;;;;;;;;;;526161;28;1170;-76
2022/01/31 00:57:55;;;;;;;13.75;3.63;;;;;;;;;;525838;28;775;-77
2022/01/31 00:58:10;;;;;;;13.90;3.80;;;;;;;;;;526254;28;752;-77
2022/01/31 00:58:26;;;;;;;13.80;3.87;;;;;;;;;;525756;28;827;-76
2022/01/31 00:58:41;;;;;;;12.60;3.83;;;;;;;;;;526608;28;1195;-76
2022/01/31 00:58:56;;;;;;;15.93;4.13;;;;;;;;;;528714;27;752;-76
2022/01/31 00:59:11;;;;;;;15.63;3.83;;;;;;;;;;528055;28;1172;-77
2022/01/31 00:59:27;;;;;;;13.50;3.70;;;;;;;;;;528243;28;684;-76
2022/01/31 00:59:42;;;;;;;13.60;3.90;;;;;;;;;;527987;28;803;-76
2022/01/31 00:59:57;;;;;;;12.47;3.80;;;;;;;;;;527667;28;814;-77
2022/01/31 01:00:14;;;;;;;13.93;3.97;;;;;;;;;;528092;28;1229;-76
2022/01/31 01:00:29;;;;;;;14.52;4.10;;;;;;;;;;528079;27;953;-77
2022/01/31 01:00:44;;;;;;;14.63;3.93;;;;;;;;;;530441;27;951;-76
2022/01/31 01:01:00;;;;;;;14.77;3.83;;;;;;;;;;530218;27;1169;-77
2022/01/31 01:01:15;;;;;;;13.82;4.00;;;;;;;;;;530433;27;811;-77
2022/01/31 01:01:30;;;;;;;13.77;3.90;;;;;;;;;;530346;27;1153;-76
2022/01/31 01:01:46;;;;;;;13.63;3.70;;;;;;;;;;530352;27;703;-77
2022/01/31 01:02:01;;;;;;;13.57;3.83;;;;;;;;;;530438;27;1320;-77
2022/01/31 01:02:21;;;;;;;12.97;3.80;;;;;;;;;;530412;27;1271;-76
2022/01/31 01:02:37;;;;;;;12.20;3.38;;;;;;;;;;529842;27;1273;-77
2022/01/31 01:02:52;;;;;;;12.07;3.67;;;;;;;;;;530695;27;854;-77
2022/01/31 01:03:07;;;;;;;11.70;3.87;;;;;;;;;;530636;27;740;-77
2022/01/31 01:03:23;;;;;;;13.18;3.83;;;;;;;;;;530303;27;985;-76
2022/01/31 01:03:38;;;;;;;12.80;3.83;;;;;;;;;;530651;27;842;-76
2022/01/31 01:03:53;;;;;;;12.33;3.93;;;;;;;;;;530681;27;724;-76
2022/01/31 01:04:09;;;;;;;13.13;3.80;;;;;;;;;;530581;27;760;-77
2022/01/31 01:04:24;;;;;;;12.48;3.42;;;;;;;;;;530756;27;854;-77
2022/01/31 01:04:40;;;;;;;11.97;3.70;;;;;;;;;;530002;27;1146;-77
2022/01/31 01:04:55;;;;;;;12.65;3.83;;;;;;;;;;529902;27;1182;-76
2022/01/31 01:05:11;;;;;;;14.03;3.90;;;;;;;;;;530540;27;819;-76
2022/01/31 01:05:26;;;;;;;12.55;3.72;;;;;;;;;;530652;27;767;-77
2022/01/31 01:05:41;;;;;;;14.70;3.67;;;;;;;;;;530567;27;709;-76
2022/01/31 01:05:57;;;;;;;14.02;3.72;;;;;;;;;;530404;27;869;-76
2022/01/31 01:06:12;;;;;;;12.17;3.87;;;;;;;;;;530432;27;724;-76
2022/01/31 01:06:27;;;;;;;14.80;4.10;;;;;;;;;;528436;28;850;-76
2022/01/31 01:06:42;;;;;;;13.77;3.97;;;;;;;;;;527881;28;1309;-77
2022/01/31 01:06:58;;;;;;;12.93;3.80;;;;;;;;;;528318;28;771;-76
2022/01/31 01:07:19;;;;;;;13.87;3.83;;;;;;;;;;526089;28;993;-76
2022/01/31 01:07:34;;;;;;;12.90;3.90;;;;;;;;;;526345;28;807;-76
2022/01/31 01:07:50;;;;;;;11.60;3.80;;;;;;;;;;523934;28;1128;-76
2022/01/31 01:08:05;;;;;;;12.67;4.03;;;;;;;;;;524060;28;807;-77
2022/01/31 01:08:21;;;;;;;13.32;3.97;;;;;;;;;;523180;28;1286;-76
2022/01/31 01:08:37;;;;;;;13.38;3.97;;;;;;;;;;525400;28;827;-76
2022/01/31 01:08:53;;;;;;;13.15;3.78;;;;;;;;;;525782;28;826;-77
2022/01/31 01:09:08;;;;;;;14.13;3.73;;;;;;;;;;526216;28;1415;-77
2022/01/31 01:09:23;;;;;;;13.70;3.92;;;;;;;;;;526492;28;693;-76
2022/01/31 01:09:39;;;;;;;13.13;3.80;;;;;;;;;;526665;28;831;-76
2022/01/31 01:09:54;;;;;;;14.40;4.00;;;;;;;;;;527769;28;1293;-76
2022/01/31 01:10:09;;;;;;;14.98;4.30;;;;;;;;;;528729;28;791;-76
2022/01/31 01:10:24;;;;;;;13.73;3.87;;;;;;;;;;530346;27;1959;-76
2022/01/31 01:10:40;;;;;;;13.73;3.90;;;;;;;;;;528348;28;1280;-76
2022/01/31 01:10:55;;;;;;;14.88;4.20;;;;;;;;;;527843;28;791;-77
2022/01/31 01:11:10;;;;;;;13.20;3.77;;;;;;;;;;528312;28;1186;-76
2022/01/31 01:11:26;;;;;;;12.10;3.57;;;;;;;;;;526231;28;1142;-76
2022/01/31 01:11:41;;;;;;;11.35;3.58;;;;;;;;;;525184;28;1542;-77
2022/01/31 01:11:56;;;;;;;10.83;3.67;;;;;;;;;;523631;28;962;-77
2022/01/31 01:12:16;;;;;;;14.27;3.87;;;;;;;;;;521558;28;1294;-77
2022/01/31 01:12:31;;;;;;;15.00;3.65;;;;;;;;;;522652;28;1369;-77
2022/01/31 01:12:47;;;;;;;12.95;3.53;;;;;;;;;;524003;28;801;-76
2022/01/31 01:13:02;;;;;;;12.07;3.65;;;;;;;;;;524201;28;1162;-77
2022/01/31 01:13:18;;;;;;;16.70;4.07;;;;;;;;;;527040;28;847;-76
2022/01/31 01:13:33;;;;;;;18.73;4.18;;;;;;;;;;528102;28;900;-76
2022/01/31 01:13:48;;;;;;;13.93;3.53;;;;;;;;;;526149;28;1183;-76
2022/01/31 01:14:04;;;;;;;12.53;3.53;;;;;;;;;;526147;28;792;-76
2022/01/31 01:14:19;;;;;;;13.88;3.90;;;;;;;;;;526553;28;836;-76
2022/01/31 01:14:34;;;;;;;15.77;4.10;;;;;;;;;;528321;28;752;-77
2022/01/31 01:14:50;;;;;;;14.67;3.87;;;;;;;;;;525704;28;1348;-77
2022/01/31 01:15:06;;;;;;;13.15;3.60;;;;;;;;;;523555;28;1331;-76
2022/01/31 01:15:21;;;;;;;14.13;3.88;;;;;;;;;;524198;28;1154;-76
2022/01/31 01:15:37;;;;;;;13.57;4.00;;;;;;;;;;524490;28;1248;-77
2022/01/31 01:15:52;;;;;;;15.63;4.22;;;;;;;;;;526372;28;942;-77
2022/01/31 01:16:07;;;;;;;16.40;4.10;;;;;;;;;;526216;28;835;-76
2022/01/31 01:16:22;;;;;;;14.10;3.53;;;;;;;;;;525881;28;1150;-77
2022/01/31 01:16:38;;;;;;;13.77;3.35;;;;;;;;;;523744;28;1110;-76
2022/01/31 01:16:53;;;;;;;14.97;3.80;;;;;;;;;;523781;28;736;-76
2022/01/31 01:17:08;;;;;;;15.03;3.90;;;;;;;;;;525282;28;1122;-76
2022/01/31 01:17:24;;;;;;;12.70;3.63;;;;;;;;;;526171;28;867;-76
2022/01/31 01:17:40;;;;;;;12.63;3.60;;;;;;;;;;523871;28;1368;-77
2022/01/31 01:17:55;;;;;;;13.63;3.60;;;;;;;;;;523743;28;729;-77
2022/01/31 01:18:10;;;;;;;12.30;3.40;;;;;;;;;;524232;28;996;-77
2022/01/31 01:18:26;;;;;;;12.43;3.57;;;;;;;;;;526662;28;843;-77
2022/01/31 01:18:41;;;;;;;14.40;3.70;;;;;;;;;;526300;28;1059;-76
2022/01/31 01:18:57;;;;;;;12.57;3.42;;;;;;;;;;525855;28;1029;-76
2022/01/31 01:19:12;;;;;;;11.50;3.43;;;;;;;;;;525330;28;815;-76
2022/01/31 01:19:27;;;;;;;12.37;3.50;;;;;;;;;;526471;28;1088;-77
2022/01/31 01:19:43;;;;;;;13.18;4.05;;;;;;;;;;528109;28;793;-77
2022/01/31 01:19:58;;;;;;;14.73;5.30;;;;;;;;;;527908;28;736;-76
2022/01/31 01:20:15;;;;;;;14.13;4.80;;;;;;;;;;528294;28;938;-77
2022/01/31 01:20:30;;;;;;;14.65;5.55;;;;;;;;;;528368;28;811;-76
2022/01/31 01:20:46;;;;;;;16.98;6.85;;;;;;;;;;528331;28;819;-76
2022/01/31 01:21:01;;;;;;;16.70;7.30;;;;;;;;;;528329;28;771;-77
2022/01/31 01:21:16;;;;;;;14.63;6.80;;;;;;;;;;528485;27;784;-77
2022/01/31 01:21:32;;;;;;;14.17;5.27;;;;;;;;;;530784;27;948;-77
2022/01/31 01:21:47;;;;;;;13.10;4.20;;;;;;;;;;528351;28;910;-77
2022/01/31 01:22:03;;;;;;;14.68;5.55;;;;;;;;;;526013;28;1254;-76
2022/01/31 01:22:18;;;;;;;18.20;6.03;;;;;;;;;;526293;28;962;-76
2022/01/31 01:22:34;;;;;;;16.90;4.40;;;;;;;;;;526455;28;748;-76
2022/01/31 01:22:49;;;;;;;13.47;4.40;;;;;;;;;;524055;28;1263;-76
2022/01/31 01:23:04;;;;;;;13.75;5.15;;;;;;;;;;524122;28;1154;-77
2022/01/31 01:23:20;;;;;;;15.40;4.83;;;;;;;;;;523686;28;851;-77
2022/01/31 01:23:35;;;;;;;15.20;4.80;;;;;;;;;;524259;28;1267;-77
2022/01/31 01:23:50;;;;;;;13.07;4.90;;;;;;;;;;526220;28;1262;-76
2022/01/31 01:24:06;;;;;;;15.33;5.30;;;;;;;;;;528376;28;931;-76
2022/01/31 01:24:21;;;;;;;18.15;7.47;;;;;;;;;;528308;28;811;-76
2022/01/31 01:24:36;;;;;;;14.63;6.77;;;;;;;;;;525870;28;1234;-76
2022/01/31 01:24:52;;;;;;;14.03;5.30;;;;;;;;;;525580;28;922;-77
2022/01/31 01:25:08;;;;;;;14.17;5.00;;;;;;;;;;526010;28;1081;-77
2022/01/31 01:25:23;;;;;;;13.85;4.60;;;;;;;;;;525668;28;1421;-77
2022/01/31 01:25:39;;;;;;;15.10;4.50;;;;;;;;;;524417;28;1244;-76
2022/01/31 01:25:54;;;;;;;16.33;4.73;;;;;;;;;;526266;28;790;-76
2022/01/31 01:26:09;;;;;;;18.55;6.00;;;;;;;;;;524130;28;1359;-77
2022/01/31 01:26:24;;;;;;;18.60;6.40;;;;;;;;;;524417;28;729;-77
2022/01/31 01:26:40;;;;;;;14.73;5.17;;;;;;;;;;523911;28;1320;-77
2022/01/31 01:26:56;;;;;;;13.65;4.22;;;;;;;;;;524224;28;800;-76
2022/01/31 01:27:14;;;;;;;14.23;3.78;;;;;;;;;;523998;28;886;-77
2022/01/31 01:27:29;;;;;;;12.15;3.70;;;;;;;;;;524398;28;863;-77
2022/01/31 01:27:49;;;;;;;11.90;3.90;;;;;;;;;;526189;28;744;-77
2022/01/31 01:28:04;;;;;;;12.77;4.20;;;;;;;;;;525226;28;1235;-77
2022/01/31 01:28:22;;;;;;;13.53;4.10;;;;;;;;;;526299;28;890;-77
2022/01/31 01:28:37;;;;;;;14.27;4.00;;;;;;;;;;525782;28;1260;-77
2022/01/31 01:28:53;;;;;;;15.07;4.28;;;;;;;;;;526209;28;965;-76
2022/01/31 01:29:08;;;;;;;14.10;4.53;;;;;;;;;;526246;28;839;-77
2022/01/31 01:29:23;;;;;;;13.07;4.67;;;;;;;;;;526172;28;735;-76
2022/01/31 01:29:39;;;;;;;13.85;4.55;;;;;;;;;;523486;28;1194;-77
2022/01/31 01:29:55;;;;;;;12.63;4.20;;;;;;;;;;524056;28;807;-77
2022/01/31 01:30:13;;;;;;;12.73;4.72;;;;;;;;;;523717;28;1446;-76
2022/01/31 01:30:28;;;;;;;16.75;4.82;;;;;;;;;;524431;28;1929;-76
2022/01/31 01:30:44;;;;;;;17.58;4.35;;;;;;;;;;526112;28;806;-76
2022/01/31 01:30:59;;;;;;;15.07;3.87;;;;;;;;;;523782;28;1199;-76
2022/01/31 01:31:15;;;;;;;13.43;3.70;;;;;;;;;;523758;28;1413;-76
2022/01/31 01:31:30;;;;;;;13.18;3.75;;;;;;;;;;523799;28;811;-77
2022/01/31 01:31:47;;;;;;;12.93;3.80;;;;;;;;;;525511;28;736;-76
2022/01/31 01:32:03;;;;;;;14.02;3.90;;;;;;;;;;523915;28;1353;-76
2022/01/31 01:32:18;;;;;;;13.10;3.95;;;;;;;;;;524058;28;831;-76
2022/01/31 01:32:44;;;;;;;12.30;3.67;;;;;;;;;;524195;28;756;-76
2022/01/31 01:33:10;;;;;;;12.57;3.60;;;;;;;;;;526096;28;851;-76
2022/01/31 01:33:25;;;;;;;13.80;3.58;;;;;;;;;;528274;28;889;-76
2022/01/31 01:33:41;;;;;;;12.75;3.50;;;;;;;;;;527989;28;1193;-77
2022/01/31 01:33:56;;;;;;;14.07;3.90;;;;;;;;;;528108;28;756;-77
2022/01/31 01:34:12;;;;;;;14.73;4.03;;;;;;;;;;528394;28;945;-77
2022/01/31 01:34:31;;;;;;;14.57;4.10;;;;;;;;;;528396;28;901;-77
2022/01/31 01:34:47;;;;;;;13.70;3.90;;;;;;;;;;525825;28;1086;-77
2022/01/31 01:35:05;;;;;;;13.83;3.63;;;;;;;;;;526106;28;1480;-77
2022/01/31 01:35:20;;;;;;;16.75;3.80;;;;;;;;;;526368;28;846;-77
2022/01/31 01:35:38;;;;;;;14.27;3.73;;;;;;;;;;527539;28;1474;-77
2022/01/31 01:35:54;;;;;;;11.40;3.75;;;;;;;;;;525726;28;1189;-76
2022/01/31 01:36:10;;;;;;;12.60;3.60;;;;;;;;;;526374;28;1274;-77
2022/01/31 01:36:26;;;;;;;13.05;3.40;;;;;;;;;;526195;28;1242;-77
2022/01/31 01:36:43;;;;;;;13.00;3.40;;;;;;;;;;526297;28;1096;-77
2022/01/31 01:37:00;;;;;;;12.30;3.50;;;;;;;;;;526163;28;737;-77
2022/01/31 01:37:16;;;;;;;14.07;3.80;;;;;;;;;;526167;28;716;-77
2022/01/31 01:37:32;;;;;;;15.60;3.90;;;;;;;;;;526417;28;737;-77
2022/01/31 01:37:47;;;;;;;15.80;3.60;;;;;;;;;;524877;28;1238;-77
2022/01/31 01:38:07;;;;;;;14.15;3.53;;;;;;;;;;523762;28;1075;-76
2022/01/31 01:38:28;;;;;;;12.88;3.42;;;;;;;;;;525851;28;906;-78
2022/01/31 01:38:43;;;;;;;14.13;3.63;;;;;;;;;;524034;28;1339;-77
2022/01/31 01:38:59;;;;;;;14.67;3.70;;;;;;;;;;524210;28;788;-76
2022/01/31 01:39:14;;;;;;;15.13;3.60;;;;;;;;;;523997;28;1211;-77
2022/01/31 01:39:30;;;;;;;14.73;3.57;;;;;;;;;;523830;28;1051;-77
2022/01/31 01:39:46;;;;;;;13.25;3.42;;;;;;;;;;525450;28;929;-77
2022/01/31 01:40:01;;;;;;;14.52;3.40;;;;;;;;;;527516;28;811;-77
2022/01/31 01:40:17;;;;;;;12.90;3.30;;;;;;;;;;526144;28;793;-77
2022/01/31 01:40:35;;;;;;;14.43;3.50;;;;;;;;;;525923;28;862;-77